createdAt,value
2023-04-02T00:00:15.929Z,7.89
2023-04-02T00:03:10.777Z,7.84
2023-04-02T00:05:51.378Z,7.78
2023-04-02T00:08:23.892Z,7.72
2023-04-02T00:11:00.949Z,7.61
2023-04-02T00:13:41.670Z,7.51
2023-04-02T00:16:15.072Z,7.49
2023-04-02T00:18:48.963Z,7.45
2023-04-02T00:21:28.145Z,7.44
2023-04-02T00:24:00.186Z,7.45
2023-04-02T00:26:45.918Z,7.44
2023-04-02T00:29:16.858Z,7.45
2023-04-02T00:31:48.624Z,7.42
2023-04-02T00:34:34.259Z,7.38
2023-04-02T00:37:03.312Z,7.24
2023-04-02T00:39:39.442Z,7.17
2023-04-02T00:42:11.857Z,7.07
2023-04-02T00:44:44.371Z,6.99
2023-04-02T00:47:34.971Z,6.97
2023-04-02T00:50:18.406Z,6.93
2023-04-02T00:52:51.739Z,6.90
2023-04-02T00:55:40.463Z,6.83
2023-04-02T00:58:27.296Z,6.77
2023-04-02T01:00:57.038Z,6.70
2023-04-02T01:03:29.382Z,6.60
2023-04-02T01:06:03.499Z,6.50
2023-04-02T01:08:42.536Z,6.43
2023-04-02T01:11:23.772Z,6.37
2023-04-02T01:13:58.177Z,6.35
2023-04-02T01:16:37.197Z,6.34
2023-04-02T01:19:27.660Z,6.30
2023-04-02T01:22:09.908Z,6.25
2023-04-02T01:24:38.974Z,6.19
2023-04-02T01:27:18.768Z,6.11
2023-04-02T01:29:57.225Z,6.09
2023-04-02T01:32:29.430Z,6.04
2023-04-02T01:34:59.370Z,5.99
2023-04-02T01:37:28.065Z,6.02
2023-04-02T01:40:22.750Z,6.01
2023-04-02T01:43:26.638Z,5.92
2023-04-02T01:45:58.493Z,5.92
2023-04-02T01:48:31.326Z,5.91
2023-04-02T01:51:06.092Z,5.89
2023-04-02T01:53:35.212Z,5.97
2023-04-02T01:56:05.144Z,5.97
2023-04-02T01:58:34.040Z,5.99
2023-04-02T02:01:15.188Z,5.93
2023-04-02T02:03:45.802Z,5.86
2023-04-02T02:06:17.463Z,5.84
2023-04-02T02:09:08.075Z,5.82
2023-04-02T02:11:37.276Z,5.88
2023-04-02T02:14:15.474Z,5.87
2023-04-02T02:16:46.062Z,5.85
2023-04-02T02:19:37.312Z,5.76
2023-04-02T02:22:19.547Z,5.61
2023-04-02T02:24:49.012Z,5.53
2023-04-02T02:27:21.781Z,5.47
2023-04-02T02:30:02.859Z,5.39
2023-04-02T02:32:33.560Z,5.33
2023-04-02T02:35:19.094Z,5.30
2023-04-02T02:37:57.315Z,5.20
2023-04-02T02:40:37.267Z,5.17
2023-04-02T02:43:09.449Z,5.19
2023-04-02T02:45:42.049Z,5.20
2023-04-02T02:48:15.878Z,5.15
2023-04-02T02:50:46.557Z,5.11
2023-04-02T02:53:23.042Z,5.08
2023-04-02T02:55:58.685Z,5.07
2023-04-02T02:58:34.606Z,5.04
2023-04-02T03:01:17.368Z,4.99
2023-04-02T03:03:48.123Z,4.96
2023-04-02T03:06:21.071Z,4.96
2023-04-02T03:08:58.308Z,4.97
2023-04-02T03:11:53.028Z,4.91
2023-04-02T03:14:29.279Z,4.87
2023-04-02T03:17:11.011Z,4.87
2023-04-02T03:19:53.722Z,4.86
2023-04-02T03:22:32.664Z,4.84
2023-04-02T03:25:32.711Z,4.81
2023-04-02T03:28:07.160Z,4.80
2023-04-02T03:30:48.001Z,4.82
2023-04-02T03:33:30.788Z,4.77
2023-04-02T03:36:26.103Z,4.73
2023-04-02T03:39:12.642Z,4.64
2023-04-02T03:41:57.737Z,4.70
2023-04-02T03:44:34.753Z,4.71
2023-04-02T03:47:39.132Z,4.67
2023-04-02T03:50:16.077Z,4.64
2023-04-02T03:52:45.453Z,4.61
2023-04-02T03:55:23.418Z,4.57
2023-04-02T03:58:07.759Z,4.61
2023-04-02T04:00:40.097Z,4.64
2023-04-02T04:03:17.127Z,4.64
2023-04-02T04:06:12.286Z,4.60
2023-04-02T04:08:47.224Z,4.55
2023-04-02T04:11:20.633Z,4.50
2023-04-02T04:14:02.047Z,4.43
2023-04-02T04:16:40.753Z,4.47
2023-04-02T04:19:22.767Z,4.56
2023-04-02T04:21:57.562Z,4.56
2023-04-02T04:24:28.371Z,4.57
2023-04-02T04:27:33.977Z,4.58
2023-04-02T04:30:23.316Z,4.60
2023-04-02T04:33:04.343Z,4.61
2023-04-02T04:35:45.927Z,4.68
2023-04-02T04:38:34.948Z,4.58
2023-04-02T04:41:17.831Z,4.45
2023-04-02T04:44:07.332Z,4.40
2023-04-02T04:46:56.596Z,4.38
2023-04-02T04:49:28.236Z,4.32
2023-04-02T04:52:01.285Z,4.32
2023-04-02T04:54:30.247Z,4.30
2023-04-02T04:57:04.379Z,4.29
2023-04-02T04:59:44.910Z,4.32
2023-04-02T05:02:21.646Z,4.33
2023-04-02T05:04:53.019Z,4.30
2023-04-02T05:07:30.241Z,4.32
2023-04-02T05:10:14.301Z,4.30
2023-04-02T05:12:50.937Z,4.29
2023-04-02T05:15:33.352Z,4.26
2023-04-02T05:18:21.647Z,4.28
2023-04-02T05:21:19.351Z,4.19
2023-04-02T05:24:07.208Z,4.17
2023-04-02T05:26:48.094Z,4.24
2023-04-02T05:29:26.077Z,4.16
2023-04-02T05:32:09.321Z,4.01
2023-04-02T05:34:41.920Z,4.02
2023-04-02T05:37:18.898Z,4.00
2023-04-02T05:39:53.129Z,4.03
2023-04-02T05:42:31.618Z,4.09
2023-04-02T05:45:29.134Z,4.14
2023-04-02T05:48:02.462Z,4.22
2023-04-02T05:50:40.741Z,4.31
2023-04-02T05:53:30.974Z,4.29
2023-04-02T05:56:06.235Z,4.26
2023-04-02T05:58:42.558Z,4.18
2023-04-02T06:01:25.533Z,4.11
2023-04-02T06:04:13.955Z,4.14
2023-04-02T06:06:53.081Z,4.11
2023-04-02T06:10:05.309Z,4.08
2023-04-02T06:12:45.809Z,4.08
2023-04-02T06:15:17.206Z,4.06
2023-04-02T06:17:51.497Z,4.13
2023-04-02T06:20:21.668Z,4.16
2023-04-02T06:22:56.315Z,4.13
2023-04-02T06:25:38.897Z,4.07
2023-04-02T06:28:17.541Z,4.08
2023-04-02T06:30:58.849Z,4.11
2023-04-02T06:33:27.811Z,4.15
2023-04-02T06:35:57.308Z,4.18
2023-04-02T06:38:31.917Z,4.13
2023-04-02T06:41:05.941Z,4.08
2023-04-02T06:43:55.869Z,4.01
2023-04-02T06:46:52.518Z,4.06
2023-04-02T06:49:25.056Z,4.13
2023-04-02T06:52:01.319Z,4.16
2023-04-02T06:54:31.965Z,4.21
2023-04-02T06:57:07.960Z,4.15
2023-04-02T06:59:43.064Z,4.11
2023-04-02T07:02:33.033Z,4.11
2023-04-02T07:05:10.955Z,4.09
2023-04-02T07:07:44.519Z,4.04
2023-04-02T07:10:14.198Z,3.98
2023-04-02T07:12:42.810Z,3.89
2023-04-02T07:15:17.602Z,3.91
2023-04-02T07:17:47.329Z,3.92
2023-04-02T07:20:25.083Z,3.98
2023-04-02T07:22:54.784Z,4.07
2023-04-02T07:25:24.362Z,4.12
2023-04-02T07:27:53.890Z,4.14
2023-04-02T07:30:23.116Z,4.10
2023-04-02T07:32:51.869Z,4.11
2023-04-02T07:35:20.673Z,4.10
2023-04-02T07:37:49.754Z,4.16
2023-04-02T07:40:22.480Z,4.21
2023-04-02T07:42:51.874Z,4.23
2023-04-02T07:45:20.499Z,4.24
2023-04-02T07:47:49.227Z,4.22
2023-04-02T07:50:18.379Z,4.19
2023-04-02T07:52:47.077Z,4.17
2023-04-02T07:55:17.085Z,4.23
2023-04-02T07:57:57.073Z,4.23
2023-04-02T08:00:29.969Z,4.17
2023-04-02T08:02:59.731Z,4.14
2023-04-02T08:05:28.218Z,4.13
2023-04-02T08:07:57.279Z,4.10
2023-04-02T08:10:26.354Z,4.09
2023-04-02T08:12:55.097Z,4.12
2023-04-02T08:15:23.786Z,4.10
2023-04-02T08:17:53.731Z,4.09
2023-04-02T08:20:23.211Z,4.09
2023-04-02T08:22:51.811Z,4.09
2023-04-02T08:25:20.446Z,4.09
2023-04-02T08:27:50.244Z,4.08
2023-04-02T08:30:19.717Z,4.14
2023-04-02T08:32:48.687Z,4.18
2023-04-02T08:35:17.955Z,4.24
2023-04-02T08:37:47.593Z,4.24
2023-04-02T08:40:26.653Z,4.22
2023-04-02T08:43:31.330Z,4.22
2023-04-02T08:46:08.734Z,4.22
2023-04-02T08:48:42.700Z,4.16
2023-04-02T08:51:25.298Z,4.18
2023-04-02T08:53:59.977Z,4.14
2023-04-02T08:56:42.346Z,4.13
2023-04-02T08:59:34.099Z,4.11
2023-04-02T09:02:29.490Z,4.10
2023-04-02T09:05:00.468Z,4.04
2023-04-02T09:07:29.933Z,3.97
2023-04-02T09:09:58.525Z,3.91
2023-04-02T09:12:31.419Z,3.92
2023-04-02T09:15:11.754Z,3.90
2023-04-02T09:17:53.190Z,3.92
2023-04-02T09:20:26.893Z,3.89
2023-04-02T09:22:57.411Z,3.96
2023-04-02T09:25:32.582Z,3.96
2023-04-02T09:28:04.146Z,3.98
2023-04-02T09:30:54.688Z,3.97
2023-04-02T09:33:46.375Z,3.96
2023-04-02T09:36:38.832Z,4.09
2023-04-02T09:39:46.837Z,4.16
2023-04-02T09:42:38.338Z,4.35
2023-04-02T09:45:25.796Z,4.59
2023-04-02T09:47:56.533Z,4.67
2023-04-02T09:50:27.989Z,4.85
2023-04-02T09:52:56.674Z,5.02
2023-04-02T09:55:29.705Z,5.10
2023-04-02T09:58:13.708Z,5.07
2023-04-02T10:00:53.671Z,5.00
2023-04-02T10:03:31.777Z,5.06
2023-04-02T10:06:11.108Z,5.09
2023-04-02T10:08:43.091Z,5.01
2023-04-02T10:11:17.868Z,4.92
2023-04-02T10:13:54.207Z,4.94
2023-04-02T10:16:33.551Z,4.99
2023-04-02T10:19:15.029Z,4.96
2023-04-02T10:21:46.462Z,4.98
2023-04-02T10:24:17.129Z,4.93
2023-04-02T10:27:04.992Z,4.88
2023-04-02T10:29:39.397Z,4.82
2023-04-02T10:32:15.731Z,4.79
2023-04-02T10:34:59.557Z,4.71
2023-04-02T10:37:47.438Z,4.71
2023-04-02T10:40:36.930Z,4.77
2023-04-02T10:43:44.633Z,4.78
2023-04-02T10:46:27.326Z,4.77
2023-04-02T10:49:26.592Z,4.76
2023-04-02T10:52:29.676Z,4.69
2023-04-02T10:55:05.939Z,4.63
2023-04-02T10:57:43.209Z,4.55
2023-04-02T11:00:12.941Z,4.54
2023-04-02T11:02:47.975Z,4.57
2023-04-02T11:05:40.766Z,4.62
2023-04-02T11:08:49.296Z,4.77
2023-04-02T11:11:23.155Z,4.99
2023-04-02T11:14:27.581Z,5.09
2023-04-02T11:17:00.392Z,5.14
2023-04-02T11:19:31.404Z,5.17
2023-04-02T11:22:21.342Z,5.14
2023-04-02T11:24:53.816Z,5.08
2023-04-02T11:27:34.439Z,5.00
2023-04-02T11:30:14.102Z,4.95
2023-04-02T11:32:46.076Z,4.97
2023-04-02T11:35:35.973Z,4.99
2023-04-02T11:38:11.804Z,4.99
2023-04-02T11:40:57.704Z,5.04
2023-04-02T11:43:38.501Z,5.10
2023-04-02T11:46:16.853Z,5.12
2023-04-02T11:48:45.965Z,5.14
2023-04-02T11:51:21.461Z,5.14
2023-04-02T11:53:54.461Z,5.20
2023-04-02T11:56:39.296Z,5.25
2023-04-02T11:59:10.962Z,5.34
2023-04-02T12:01:54.759Z,5.31
2023-04-02T12:04:32.540Z,5.41
2023-04-02T12:07:35.162Z,5.46
2023-04-02T12:10:17.734Z,5.46
2023-04-02T12:12:47.310Z,5.40
2023-04-02T12:15:38.634Z,5.33
2023-04-02T12:18:19.601Z,5.25
2023-04-02T12:20:51.832Z,5.17
2023-04-02T12:23:31.751Z,5.19
2023-04-02T12:26:24.451Z,5.17
2023-04-02T12:28:53.777Z,5.16
2023-04-02T12:31:25.709Z,5.22
2023-04-02T12:33:54.702Z,5.30
2023-04-02T12:36:24.104Z,5.34
2023-04-02T12:38:59.245Z,5.40
2023-04-02T12:41:33.605Z,5.40
2023-04-02T12:44:17.464Z,5.38
2023-04-02T12:46:46.826Z,5.36
2023-04-02T12:49:32.293Z,5.30
2023-04-02T12:52:07.802Z,5.21
2023-04-02T12:55:01.415Z,5.18
2023-04-02T12:57:30.227Z,5.21
2023-04-02T13:00:01.910Z,5.28
2023-04-02T13:02:33.554Z,5.39
2023-04-02T13:05:03.575Z,5.47
2023-04-02T13:07:33.894Z,5.53
2023-04-02T13:10:04.394Z,5.59
2023-04-02T13:12:37.348Z,5.62
2023-04-02T13:15:24.067Z,5.63
2023-04-02T13:18:23.129Z,5.66
2023-04-02T13:21:20.418Z,5.72
2023-04-02T13:23:49.446Z,5.76
2023-04-02T13:26:25.025Z,5.81
2023-04-02T13:29:02.554Z,5.83
2023-04-02T13:31:33.000Z,5.86
2023-04-02T13:34:02.495Z,5.86
2023-04-02T13:36:31.406Z,5.90
2023-04-02T13:39:00.461Z,5.91
2023-04-02T13:41:32.237Z,5.87
2023-04-02T13:44:03.862Z,5.88
2023-04-02T13:46:34.718Z,5.87
2023-04-02T13:49:04.111Z,5.84
2023-04-02T13:51:45.258Z,5.84
2023-04-02T13:54:21.088Z,5.80
2023-04-02T13:56:49.784Z,5.78
2023-04-02T13:59:18.968Z,5.75
2023-04-02T14:01:51.194Z,5.71
2023-04-02T14:04:27.821Z,5.66
2023-04-02T14:07:09.834Z,5.69
2023-04-02T14:09:54.119Z,5.72
2023-04-02T14:12:42.076Z,5.70
2023-04-02T14:15:13.989Z,5.70
2023-04-02T14:18:04.648Z,5.66
2023-04-02T14:20:45.581Z,5.64
2023-04-02T14:23:20.794Z,5.62
2023-04-02T14:26:18.430Z,5.64
2023-04-02T14:29:07.756Z,5.74
2023-04-02T14:32:02.301Z,5.85
2023-04-02T14:34:52.263Z,5.88
2023-04-02T14:37:24.015Z,5.95
2023-04-02T14:40:34.592Z,5.96
2023-04-02T14:43:06.713Z,5.91
2023-04-02T14:46:03.776Z,5.89
2023-04-02T14:48:57.318Z,5.87
2023-04-02T14:51:41.338Z,5.86
2023-04-02T14:54:15.756Z,5.84
2023-04-02T14:57:19.173Z,5.82
2023-04-02T15:00:13.750Z,5.79
2023-04-02T15:02:59.385Z,5.78
2023-04-02T15:05:44.832Z,5.76
2023-04-02T15:08:28.076Z,5.84
2023-04-02T15:11:07.854Z,5.84
2023-04-02T15:13:42.205Z,5.84
2023-04-02T15:16:19.734Z,5.86
2023-04-02T15:19:00.264Z,5.86
2023-04-02T15:21:38.763Z,5.83
2023-04-02T15:24:23.133Z,5.77
2023-04-02T15:27:29.822Z,5.76
2023-04-02T15:30:09.661Z,5.76
2023-04-02T15:32:39.258Z,5.77
2023-04-02T15:35:12.166Z,5.75
2023-04-02T15:38:05.727Z,5.74
2023-04-02T15:40:46.959Z,5.69
2023-04-02T15:43:24.860Z,5.62
2023-04-02T15:46:05.966Z,5.61
2023-04-02T15:49:06.907Z,5.63
2023-04-02T15:52:13.313Z,5.60
2023-04-02T15:55:05.080Z,5.56
2023-04-02T15:57:40.071Z,5.60
2023-04-02T16:00:15.157Z,5.63
2023-04-02T16:03:00.126Z,5.65
2023-04-02T16:06:00.999Z,5.63
2023-04-02T16:08:32.736Z,5.62
2023-04-02T16:11:14.409Z,5.62
2023-04-02T16:13:43.786Z,5.62
2023-04-02T16:16:19.125Z,5.61
2023-04-02T16:19:17.378Z,5.59
2023-04-02T16:21:58.993Z,5.60
2023-04-02T16:24:27.874Z,5.60
2023-04-02T16:27:08.017Z,5.55
2023-04-02T16:29:55.412Z,5.55
2023-04-02T16:32:58.111Z,5.55
2023-04-02T16:35:43.122Z,5.56
2023-04-02T16:38:36.646Z,5.58
2023-04-02T16:41:24.016Z,5.63
2023-04-02T16:44:02.848Z,5.63
2023-04-02T16:46:39.664Z,5.61
2023-04-02T16:49:29.032Z,5.60
2023-04-02T16:52:08.355Z,5.57
2023-04-02T16:54:53.122Z,5.54
2023-04-02T16:57:41.226Z,5.53
2023-04-02T17:00:31.235Z,5.52
2023-04-02T17:03:29.846Z,5.53
2023-04-02T17:06:55.320Z,5.53
2023-04-02T17:10:04.403Z,5.53
2023-04-02T17:13:08.739Z,5.56
2023-04-02T17:16:11.063Z,5.57
2023-04-02T17:19:11.611Z,5.56
2023-04-02T17:22:24.959Z,5.55
2023-04-02T17:25:17.294Z,5.54
2023-04-02T17:28:05.834Z,5.55
2023-04-02T17:30:55.319Z,5.55
2023-04-02T17:33:46.316Z,5.55
2023-04-02T17:36:54.275Z,5.53
2023-04-02T17:40:02.124Z,5.54
2023-04-02T17:42:46.907Z,5.55
2023-04-02T17:45:29.290Z,5.55
2023-04-02T17:48:08.714Z,5.51
2023-04-02T17:50:57.093Z,5.50
2023-04-02T17:53:56.281Z,5.51
2023-04-02T17:56:40.097Z,5.51
2023-04-02T17:59:12.048Z,5.52
2023-04-02T18:02:02.641Z,5.52
2023-04-02T18:04:46.342Z,5.52
2023-04-02T18:07:23.987Z,5.49
2023-04-02T18:09:59.025Z,5.48
2023-04-02T18:12:31.282Z,5.44
2023-04-02T18:15:13.219Z,5.43
2023-04-02T18:18:30.396Z,5.43
2023-04-02T18:21:36.198Z,5.43
2023-04-02T18:24:39.486Z,5.42
2023-04-02T18:27:24.002Z,5.42
2023-04-02T18:30:12.719Z,5.44
2023-04-02T18:33:19.844Z,5.46
2023-04-02T18:36:06.077Z,5.47
2023-04-02T18:38:35.056Z,5.48
2023-04-02T18:41:22.528Z,5.50
2023-04-02T18:43:57.864Z,5.45
2023-04-02T18:46:42.047Z,5.41
2023-04-02T18:49:26.652Z,5.42
2023-04-02T18:52:13.808Z,5.42
2023-04-02T18:55:07.607Z,5.41
2023-04-02T18:57:40.881Z,5.39
2023-04-02T19:00:20.117Z,5.40
2023-04-02T19:03:04.812Z,5.39
2023-04-02T19:06:06.297Z,5.36
2023-04-02T19:08:43.296Z,5.35
2023-04-02T19:11:17.529Z,5.35
2023-04-02T19:13:48.889Z,5.35
2023-04-02T19:16:17.929Z,5.37
2023-04-02T19:19:05.705Z,5.38
2023-04-02T19:22:00.472Z,5.38
2023-04-02T19:24:43.820Z,5.38
2023-04-02T19:27:48.838Z,5.36
2023-04-02T19:30:45.288Z,5.32
2023-04-02T19:33:26.341Z,5.31
2023-04-02T19:36:03.811Z,5.31
2023-04-02T19:38:49.806Z,5.28
2023-04-02T19:41:27.602Z,5.24
2023-04-02T19:43:56.670Z,5.24
2023-04-02T19:46:26.750Z,5.25
2023-04-02T19:49:17.492Z,5.25
2023-04-02T19:51:46.370Z,5.27
2023-04-02T19:54:14.974Z,5.28
2023-04-02T19:56:44.081Z,5.33
2023-04-02T20:01:45.320Z,5.30
2023-04-02T20:04:15.150Z,5.28
2023-04-02T20:06:43.870Z,5.29
2023-04-02T20:09:12.484Z,5.26
2023-04-02T20:11:41.851Z,5.22
2023-04-02T20:14:10.385Z,5.21
2023-04-02T20:16:40.227Z,5.24
2023-04-02T20:19:09.455Z,5.26
2023-04-02T20:21:39.045Z,5.27
2023-04-02T20:24:09.101Z,5.29
2023-04-02T20:26:37.901Z,5.29
2023-04-02T20:29:06.681Z,5.24
2023-04-02T20:31:36.752Z,5.22
2023-04-02T20:34:07.119Z,5.20
2023-04-02T20:36:36.234Z,5.17
2023-04-02T20:39:08.277Z,5.16
2023-04-02T20:41:37.434Z,5.17
2023-04-02T20:44:05.883Z,5.14
2023-04-02T20:46:34.723Z,5.11
2023-04-02T20:49:04.151Z,5.12
2023-04-02T20:51:32.760Z,5.11
2023-04-02T20:54:01.782Z,5.07
2023-04-02T20:56:30.692Z,4.98
2023-04-02T20:58:59.254Z,4.92
2023-04-02T21:01:30.594Z,4.88
2023-04-02T21:04:01.969Z,4.85
2023-04-02T21:06:33.628Z,4.81
2023-04-02T21:09:07.699Z,4.74
2023-04-02T21:11:37.743Z,4.68
2023-04-02T21:14:07.125Z,4.63
2023-04-02T21:16:36.077Z,4.59
2023-04-02T21:19:08.508Z,4.58
2023-04-02T21:21:39.305Z,4.59
2023-04-02T21:24:10.087Z,4.56
2023-04-02T21:26:40.759Z,4.54
2023-04-02T21:29:11.596Z,4.54
2023-04-02T21:31:41.618Z,4.48
2023-04-02T21:34:14.787Z,4.42
2023-04-02T21:36:45.524Z,4.39
2023-04-02T21:39:20.899Z,4.37
2023-04-02T21:41:51.764Z,4.36
2023-04-02T21:44:23.266Z,4.31
2023-04-02T21:46:54.134Z,4.25
2023-04-02T21:49:24.051Z,4.20
2023-04-02T21:51:53.122Z,4.12
2023-04-02T21:54:22.274Z,4.03
2023-04-02T21:56:51.536Z,3.94
2023-04-02T21:59:20.958Z,3.93
2023-04-02T22:01:52.221Z,3.89
2023-04-02T22:04:23.644Z,3.83
2023-04-02T22:06:53.456Z,3.76
2023-04-02T22:09:25.172Z,3.69
2023-04-02T22:11:59.560Z,3.59
2023-04-02T22:14:28.927Z,3.49
2023-04-02T22:16:59.075Z,3.41
2023-04-02T22:19:28.012Z,3.35
2023-04-02T22:21:57.491Z,3.34
2023-04-02T22:24:26.561Z,3.32
2023-04-02T22:26:55.844Z,3.29
2023-04-02T22:29:25.196Z,3.26
2023-04-02T22:31:53.885Z,3.25
2023-04-02T22:34:22.393Z,3.25
2023-04-02T22:36:51.148Z,3.22
2023-04-02T22:39:20.202Z,3.19
2023-04-02T22:41:48.582Z,3.20
2023-04-02T22:44:17.622Z,3.16
2023-04-02T22:46:46.863Z,3.14
2023-04-02T22:49:19.716Z,3.09
2023-04-02T22:51:48.786Z,3.04
2023-04-02T22:54:17.341Z,2.98
2023-04-02T22:56:46.281Z,2.92
2023-04-02T22:59:15.209Z,2.89
2023-04-02T23:01:43.768Z,2.85
2023-04-02T23:04:13.367Z,2.81
2023-04-02T23:06:42.553Z,2.77
2023-04-02T23:09:11.222Z,2.71
2023-04-02T23:11:40.048Z,2.65
2023-04-02T23:14:09.562Z,2.60
2023-04-02T23:16:38.064Z,2.59
2023-04-02T23:19:06.956Z,2.57
2023-04-02T23:21:35.737Z,2.52
2023-04-02T23:24:04.467Z,2.48
2023-04-02T23:26:33.582Z,2.45
2023-04-02T23:29:02.733Z,2.44
2023-04-02T23:31:31.692Z,2.42
2023-04-02T23:34:00.774Z,2.43
2023-04-02T23:36:32.048Z,2.46
2023-04-02T23:39:08.336Z,2.42
2023-04-02T23:41:38.218Z,2.38
2023-04-02T23:44:07.413Z,2.36
2023-04-02T23:46:37.040Z,2.35
2023-04-02T23:49:06.140Z,2.37
2023-04-02T23:51:35.006Z,2.35
2023-04-02T23:54:03.996Z,2.32
2023-04-02T23:56:32.846Z,2.32
2023-04-02T23:59:01.653Z,2.29
